sensor_id;sensor_type;location;lat;lon;timestamp;pressure;altitude;pressure_sealevel;temperature;humidity
39699;BME280;25372;50.582;12.250;2023-02-25T00:07:17;97974.78;;;1.42;100.00
39699;BME280;25372;50.582;12.250;2023-02-25T00:17:39;97976.78;;;1.32;100.00
39699;BME280;25372;50.582;12.250;2023-02-25T00:28:00;97962.00;;;1.24;100.00
39699;BME280;25372;50.582;12.250;2023-02-25T00:38:25;97962.69;;;1.41;100.00
39699;BME280;25372;50.582;12.250;2023-02-25T00:48:47;97955.56;;;1.35;100.00
39699;BME280;25372;50.582;12.250;2023-02-25T00:59:09;97951.59;;;1.47;100.00
39699;BME280;25372;50.582;12.250;2023-02-25T01:09:30;97941.63;;;1.51;100.00
39699;BME280;25372;50.582;12.250;2023-02-25T01:19:52;97932.72;;;1.60;100.00
39699;BME280;25372;50.582;12.250;2023-02-25T01:30:13;97931.34;;;1.72;100.00
39699;BME280;25372;50.582;12.250;2023-02-25T01:40:35;97916.22;;;1.91;100.00
39699;BME280;25372;50.582;12.250;2023-02-25T01:50:58;97922.69;;;1.95;100.00
39699;BME280;25372;50.582;12.250;2023-02-25T02:01:25;97916.22;;;1.91;100.00
39699;BME280;25372;50.582;12.250;2023-02-25T02:11:47;97917.63;;;1.94;100.00
39699;BME280;25372;50.582;12.250;2023-02-25T02:22:12;97902.88;;;2.01;100.00
39699;BME280;25372;50.582;12.250;2023-02-25T02:32:40;97904.06;;;1.98;100.00
39699;BME280;25372;50.582;12.250;2023-02-25T02:43:10;97879.66;;;1.91;100.00
39699;BME280;25372;50.582;12.250;2023-02-25T02:53:39;97890.69;;;1.78;100.00
39699;BME280;25372;50.582;12.250;2023-02-25T03:04:03;97881.63;;;1.66;100.00
39699;BME280;25372;50.582;12.250;2023-02-25T03:14:26;97892.38;;;1.71;100.00
39699;BME280;25372;50.582;12.250;2023-02-25T03:24:49;97890.09;;;1.68;100.00
39699;BME280;25372;50.582;12.250;2023-02-25T03:35:16;97887.31;;;1.69;100.00
39699;BME280;25372;50.582;12.250;2023-02-25T03:45:40;97910.69;;;1.63;100.00
39699;BME280;25372;50.582;12.250;2023-02-25T03:56:07;97920.09;;;1.49;100.00
39699;BME280;25372;50.582;12.250;2023-02-25T04:06:31;97921.94;;;1.40;100.00
39699;BME280;25372;50.582;12.250;2023-02-25T04:16:53;97935.75;;;1.49;100.00
39699;BME280;25372;50.582;12.250;2023-02-25T04:27:15;97974.56;;;1.52;100.00
39699;BME280;25372;50.582;12.250;2023-02-25T04:37:37;97990.50;;;0.78;100.00
39699;BME280;25372;50.582;12.250;2023-02-25T04:47:58;98004.72;;;0.50;100.00
39699;BME280;25372;50.582;12.250;2023-02-25T04:58:20;98005.03;;;0.39;100.00
39699;BME280;25372;50.582;12.250;2023-02-25T05:08:41;98009.13;;;0.42;100.00
39699;BME280;25372;50.582;12.250;2023-02-25T05:19:03;98008.16;;;0.43;100.00
39699;BME280;25372;50.582;12.250;2023-02-25T05:29:24;98015.78;;;0.36;100.00
39699;BME280;25372;50.582;12.250;2023-02-25T05:39:46;98031.09;;;0.39;100.00
39699;BME280;25372;50.582;12.250;2023-02-25T05:50:08;98027.34;;;0.33;100.00
39699;BME280;25372;50.582;12.250;2023-02-25T06:00:31;98044.97;;;0.40;100.00
39699;BME280;25372;50.582;12.250;2023-02-25T06:10:51;98069.03;;;0.33;100.00
39699;BME280;25372;50.582;12.250;2023-02-25T06:21:14;98080.78;;;0.38;100.00
39699;BME280;25372;50.582;12.250;2023-02-25T06:31:35;98098.72;;;0.49;100.00
39699;BME280;25372;50.582;12.250;2023-02-25T06:41:57;98118.75;;;0.57;100.00
39699;BME280;25372;50.582;12.250;2023-02-25T06:52:18;98130.00;;;0.57;100.00
39699;BME280;25372;50.582;12.250;2023-02-25T07:02:39;98147.94;;;0.60;100.00
39699;BME280;25372;50.582;12.250;2023-02-25T07:13:00;98150.72;;;0.59;100.00
39699;BME280;25372;50.582;12.250;2023-02-25T07:23:23;98159.81;;;0.71;100.00
39699;BME280;25372;50.582;12.250;2023-02-25T07:33:43;98166.69;;;0.89;100.00
39699;BME280;25372;50.582;12.250;2023-02-25T07:44:06;98169.28;;;0.72;100.00
39699;BME280;25372;50.582;12.250;2023-02-25T07:54:28;98184.13;;;0.88;100.00
39699;BME280;25372;50.582;12.250;2023-02-25T08:04:50;98198.94;;;0.71;100.00
39699;BME280;25372;50.582;12.250;2023-02-25T08:15:11;98205.97;;;0.71;100.00
39699;BME280;25372;50.582;12.250;2023-02-25T08:25:33;98205.81;;;0.89;100.00
39699;BME280;25372;50.582;12.250;2023-02-25T08:35:53;98217.38;;;0.94;100.00
39699;BME280;25372;50.582;12.250;2023-02-25T08:46:15;98223.59;;;1.18;100.00
39699;BME280;25372;50.582;12.250;2023-02-25T08:56:37;98226.66;;;0.89;100.00
39699;BME280;25372;50.582;12.250;2023-02-25T09:07:04;98250.84;;;1.32;100.00
39699;BME280;25372;50.582;12.250;2023-02-25T09:17:24;98259.94;;;1.03;100.00
39699;BME280;25372;50.582;12.250;2023-02-25T09:27:46;98269.75;;;1.34;100.00
39699;BME280;25372;50.582;12.250;2023-02-25T09:38:07;98276.75;;;0.92;100.00
39699;BME280;25372;50.582;12.250;2023-02-25T09:48:32;98298.09;;;0.96;100.00
39699;BME280;25372;50.582;12.250;2023-02-25T09:58:56;98337.19;;;0.79;100.00
39699;BME280;25372;50.582;12.250;2023-02-25T10:09:24;98332.59;;;0.73;100.00
39699;BME280;25372;50.582;12.250;2023-02-25T10:20:13;98362.53;;;1.03;100.00
39699;BME280;25372;50.582;12.250;2023-02-25T10:30:46;98377.84;;;0.98;100.00
39699;BME280;25372;50.582;12.250;2023-02-25T10:41:08;98386.78;;;0.96;100.00
39699;BME280;25372;50.582;12.250;2023-02-25T10:51:30;98395.53;;;0.78;100.00
39699;BME280;25372;50.582;12.250;2023-02-25T11:01:51;98401.47;;;0.97;100.00
39699;BME280;25372;50.582;12.250;2023-02-25T11:12:17;98415.47;;;0.96;100.00
39699;BME280;25372;50.582;12.250;2023-02-25T11:22:39;98415.97;;;0.91;100.00
39699;BME280;25372;50.582;12.250;2023-02-25T11:33:05;98425.53;;;1.17;100.00
39699;BME280;25372;50.582;12.250;2023-02-25T11:43:34;98419.63;;;1.07;100.00
39699;BME280;25372;50.582;12.250;2023-02-25T11:54:18;98424.69;;;1.84;100.00
39699;BME280;25372;50.582;12.250;2023-02-25T12:16:10;98443.75;;;1.76;100.00
39699;BME280;25372;50.582;12.250;2023-02-25T12:26:49;98446.03;;;1.54;100.00
39699;BME280;25372;50.582;12.250;2023-02-25T12:37:38;98459.31;;;1.27;100.00
39699;BME280;25372;50.582;12.250;2023-02-25T12:48:23;98476.03;;;1.50;100.00
39699;BME280;25372;50.582;12.250;2023-02-25T12:59:04;98477.38;;;1.63;100.00
39699;BME280;25372;50.582;12.250;2023-02-25T13:09:47;98486.75;;;1.39;100.00
39699;BME280;25372;50.582;12.250;2023-02-25T13:20:30;98485.28;;;1.28;100.00
39699;BME280;25372;50.582;12.250;2023-02-25T13:30:58;98500.56;;;1.23;100.00
39699;BME280;25372;50.582;12.250;2023-02-25T13:41:37;98503.50;;;1.20;100.00
39699;BME280;25372;50.582;12.250;2023-02-25T13:52:12;98510.97;;;1.15;100.00
39699;BME280;25372;50.582;12.250;2023-02-25T14:03:02;98515.63;;;1.37;100.00
39699;BME280;25372;50.582;12.250;2023-02-25T14:13:43;98539.47;;;1.43;100.00
39699;BME280;25372;50.582;12.250;2023-02-25T14:24:08;98553.00;;;0.59;100.00
39699;BME280;25372;50.582;12.250;2023-02-25T14:34:44;98592.31;;;-0.34;100.00
39699;BME280;25372;50.582;12.250;2023-02-25T14:45:17;98602.34;;;-0.39;100.00
39699;BME280;25372;50.582;12.250;2023-02-25T14:56:14;98649.88;;;1.09;100.00
39699;BME280;25372;50.582;12.250;2023-02-25T15:06:52;98653.56;;;-0.02;100.00
39699;BME280;25372;50.582;12.250;2023-02-25T15:27:55;98674.88;;;-0.16;100.00
39699;BME280;25372;50.582;12.250;2023-02-25T15:38:20;98691.59;;;-0.19;100.00
39699;BME280;25372;50.582;12.250;2023-02-25T15:48:43;98705.56;;;-0.48;100.00
39699;BME280;25372;50.582;12.250;2023-02-25T15:59:06;98736.13;;;-0.69;100.00
39699;BME280;25372;50.582;12.250;2023-02-25T16:09:30;98750.78;;;-0.88;100.00
39699;BME280;25372;50.582;12.250;2023-02-25T16:19:54;98766.81;;;-0.93;100.00
39699;BME280;25372;50.582;12.250;2023-02-25T16:30:21;98766.25;;;-0.86;100.00
39699;BME280;25372;50.582;12.250;2023-02-25T16:40:45;98783.78;;;-0.89;100.00
39699;BME280;25372;50.582;12.250;2023-02-25T16:51:09;98790.50;;;-0.96;100.00
39699;BME280;25372;50.582;12.250;2023-02-25T17:01:33;98822.50;;;-0.95;100.00
39699;BME280;25372;50.582;12.250;2023-02-25T17:11:57;98840.88;;;-0.87;100.00
39699;BME280;25372;50.582;12.250;2023-02-25T17:22:19;98853.16;;;-1.09;100.00
39699;BME280;25372;50.582;12.250;2023-02-25T17:32:53;98868.34;;;-1.04;100.00
39699;BME280;25372;50.582;12.250;2023-02-25T17:43:19;98880.13;;;-1.00;100.00
39699;BME280;25372;50.582;12.250;2023-02-25T17:53:46;98898.59;;;-1.03;100.00
39699;BME280;25372;50.582;12.250;2023-02-25T18:04:20;98918.03;;;-1.07;100.00
39699;BME280;25372;50.582;12.250;2023-02-25T18:14:43;98922.81;;;-1.02;100.00
39699;BME280;25372;50.582;12.250;2023-02-25T18:25:27;98929.84;;;-0.93;100.00
39699;BME280;25372;50.582;12.250;2023-02-25T18:35:49;98939.56;;;-0.95;100.00
39699;BME280;25372;50.582;12.250;2023-02-25T18:46:10;98946.69;;;-0.97;100.00
39699;BME280;25372;50.582;12.250;2023-02-25T18:56:33;98957.50;;;-0.92;100.00
39699;BME280;25372;50.582;12.250;2023-02-25T19:06:53;98973.44;;;-1.07;100.00
39699;BME280;25372;50.582;12.250;2023-02-25T19:17:15;98985.13;;;-1.01;100.00
39699;BME280;25372;50.582;12.250;2023-02-25T19:27:36;98992.31;;;-1.14;100.00
39699;BME280;25372;50.582;12.250;2023-02-25T19:37:58;99012.44;;;-1.16;100.00
39699;BME280;25372;50.582;12.250;2023-02-25T19:48:19;99030.06;;;-1.20;100.00
39699;BME280;25372;50.582;12.250;2023-02-25T19:58:41;99052.06;;;-1.24;100.00
39699;BME280;25372;50.582;12.250;2023-02-25T20:09:04;99061.41;;;-1.43;100.00
39699;BME280;25372;50.582;12.250;2023-02-25T20:19:27;99072.94;;;-1.35;100.00
39699;BME280;25372;50.582;12.250;2023-02-25T20:29:50;99089.97;;;-1.43;100.00
39699;BME280;25372;50.582;12.250;2023-02-25T20:40:13;99107.28;;;-1.53;100.00
39699;BME280;25372;50.582;12.250;2023-02-25T20:50:34;99108.81;;;-1.62;100.00
39699;BME280;25372;50.582;12.250;2023-02-25T21:00:58;99121.00;;;-1.73;100.00
39699;BME280;25372;50.582;12.250;2023-02-25T21:11:19;99142.59;;;-1.62;100.00
39699;BME280;25372;50.582;12.250;2023-02-25T21:21:42;99151.34;;;-1.63;100.00
39699;BME280;25372;50.582;12.250;2023-02-25T21:32:03;99162.69;;;-1.64;100.00
39699;BME280;25372;50.582;12.250;2023-02-25T21:42:25;99167.75;;;-1.62;100.00
39699;BME280;25372;50.582;12.250;2023-02-25T21:52:46;99175.44;;;-1.72;100.00
39699;BME280;25372;50.582;12.250;2023-02-25T22:03:08;99183.59;;;-1.65;100.00
39699;BME280;25372;50.582;12.250;2023-02-25T22:13:31;99190.47;;;-1.76;100.00
39699;BME280;25372;50.582;12.250;2023-02-25T22:23:55;99192.13;;;-1.74;100.00
39699;BME280;25372;50.582;12.250;2023-02-25T22:34:16;99199.94;;;-1.86;100.00
39699;BME280;25372;50.582;12.250;2023-02-25T22:44:38;99199.00;;;-1.85;100.00
39699;BME280;25372;50.582;12.250;2023-02-25T22:54:59;99210.69;;;-1.90;100.00
39699;BME280;25372;50.582;12.250;2023-02-25T23:05:21;99228.13;;;-1.93;100.00
39699;BME280;25372;50.582;12.250;2023-02-25T23:15:42;99246.91;;;-2.00;100.00
39699;BME280;25372;50.582;12.250;2023-02-25T23:26:07;99251.28;;;-1.89;100.00
39699;BME280;25372;50.582;12.250;2023-02-25T23:36:28;99264.97;;;-1.99;100.00
39699;BME280;25372;50.582;12.250;2023-02-25T23:46:50;99279.16;;;-1.91;100.00
39699;BME280;25372;50.582;12.250;2023-02-25T23:57:10;99279.03;;;-1.90;100.00
